Aérodrome :
LOGIN :

S'inscrire | Disclaimer

   EN    FR    IT 

 










Légende :    VFR   VFR Marginal   IFR   IFR Intensif   IFR Très Intensif
Visi : 
Plafond : 
>= 8 km
>= 3000ft
5 à 8 km
1000 à 3000 ft
1500m à 5 km
500 à 1000 ft
800 à 1500m
200 à 500 ft
< 800m
< 200 ft
Symboles :   Orages  Brouillard  Fortes neiges  Fortes précipitations  Vent > 20 kt
SIGMETs :   Divers  Orages  Givrage  Turbulence  Onde Orograph.  Cendres Volcan.






- Altitude de l'aérodrome : 327 ft
- Code IATA : BHX


EGBB - Birmingham

DERNIER METAR :
  • 290550Z 25005KT 210V280 9999 SCT043 12/11 Q1008

METARs EXPIRÉS :
  • 290520Z 25005KT 200V280 9999 SCT048 12/11 Q1008
  • 290450Z 24005KT 210V280 9999 SCT049 12/10 Q1007
  • 290420Z 26005KT 9999 BKN044 12/11 Q1007
  • 290350Z 24004KT 210V290 9999 FEW014 12/11 Q1007
  • 290320Z 25003KT 220V280 9999 FEW015 12/11 Q1007
  • 290250Z 25006KT 210V290 9999 SCT013 BKN040 12/11 Q1007 RERA
  • 290220Z 24006KT 210V270 6000 RA FEW015 SCT023 BKN031 12/11 Q1007
  • 290150Z 23006KT 190V280 7000 -RA FEW023 BKN029 13/11 Q1007
  • 290120Z 24007KT 210V270 9999 -RA SCT048 13/11 Q1007
  • 290050Z 23006KT 200V260 9999 -RA SCT030 13/11 Q1007

TAF TAF EGBB
Valide du 29 à 06h jusqu'au 30 à 06h UTC


290458Z 2906/3006 25008KT 9999 SCT040
PROB30
TEMPO 2906/2908 BKN010
TEMPO 2909/2920 8000 -SHRA
PROB30
TEMPO 2912/2920 SHRA
BECMG 2915/2918 31010KT
PROB30
TEMPO 3003/3006 BKN012
ATIS : +44 121 780 0910



MET'MAP, la Météo Aéronautique d'un coup d'oeil ! - Copyright ORBIFLY Décembre 2007 - Disclaimer

ORBIFLY MET'MAP TEAM :

Programmation & Développement : Alexandra Zaïnal
Sur une idée originale de : Baudouin d'Aumeries
Soutien technique & logistique : Manuel Goepfert
Assistance : Marc-Olivier Méhu




SOURCES & CREDITS :

   NOAA